Beaver Island Airport


Codes: KSJX/
Name: Beaver Island Airport
City: Beaver Island
Country: United States
Elevation: 669 ft.

Photos at Beaver Island Airport


   Photos courtesy of SpottingLog. You can add your own sightings and photos by signing up for a free trial today.



No photos found.

Weather at Beaver Island Airport


Time (UTC)DescriptionTempratureWindCloud coverageVisibilityPressureHumidity
21-Jun-2024 12:00Overcast Clouds17°C7 mph, NE100%10000m1024hPa94%
21-Jun-2024 15:00Overcast Clouds17°C7 mph, NE99%10000m1024hPa87%
21-Jun-2024 18:00Overcast Clouds18°C4 mph, N95%10000m1023hPa76%
21-Jun-2024 21:00Light Rain16°C4 mph, NE99%10000m1020hPa83%
22-Jun-2024 00:00Light Rain15°C11 mph, NE99%10000m1020hPa96%
22-Jun-2024 03:00Light Rain15°C9 mph, NE100%10000m1019hPa98%
22-Jun-2024 06:00Light Rain14°C11 mph, NE100%10000m1018hPa97%
22-Jun-2024 09:00Moderate Rain14°C11 mph, E100%2731m1016hPa99%
22-Jun-2024 12:00Moderate Rain14°C16 mph, NE100%322m1014hPa99%
22-Jun-2024 15:00Heavy Intensity Rain14°C11 mph, NE100%443m1013hPa99%
22-Jun-2024 18:00Moderate Rain14°C11 mph, N100%0m1011hPa99%
22-Jun-2024 21:00Moderate Rain15°C13 mph, NE100%117m1010hPa99%
23-Jun-2024 00:00Light Rain15°C16 mph, NE100%658m1008hPa99%
23-Jun-2024 03:00Light Rain15°C13 mph, N100%0m1007hPa99%
23-Jun-2024 06:00Light Rain15°C16 mph, NE100%130m1006hPa99%
23-Jun-2024 09:00Light Rain14°C13 mph, N99%10000m1007hPa97%
23-Jun-2024 12:00Broken Clouds13°C11 mph, N81%10000m1008hPa90%
23-Jun-2024 15:00Clear Sky15°C7 mph, N4%10000m1009hPa85%
23-Jun-2024 18:00Clear Sky18°C2 mph, W4%10000m1009hPa77%
23-Jun-2024 21:00Clear Sky19°C9 mph, SW5%10000m1008hPa75%
24-Jun-2024 00:00Light Rain17°C7 mph, W8%10000m1008hPa86%
24-Jun-2024 03:00Light Rain15°C7 mph, W79%10000m1009hPa96%
24-Jun-2024 06:00Light Rain14°C4 mph, SW56%10000m1009hPa96%
24-Jun-2024 09:00Few Clouds14°C7 mph, S12%10000m1009hPa94%
24-Jun-2024 12:00Few Clouds15°C7 mph, S13%10000m1009hPa97%
24-Jun-2024 15:00Few Clouds17°C9 mph, SW13%10000m1009hPa87%
24-Jun-2024 18:00Scattered Clouds18°C11 mph, SW34%6835m1009hPa82%
24-Jun-2024 21:00Broken Clouds19°C11 mph, SW68%10000m1007hPa80%
25-Jun-2024 00:00Overcast Clouds18°C13 mph, SW88%10000m1007hPa91%
25-Jun-2024 03:00Overcast Clouds18°C18 mph, SW100%10000m1005hPa85%
25-Jun-2024 06:00Light Rain17°C18 mph, SW100%10000m1004hPa93%
25-Jun-2024 09:00Moderate Rain17°C11 mph, E100%3541m1004hPa99%
25-Jun-2024 12:00Moderate Rain17°C16 mph, S100%10000m1002hPa97%
25-Jun-2024 15:00Heavy Intensity Rain18°C20 mph, S100%10000m998hPa83%
25-Jun-2024 18:00Light Rain18°C9 mph, SW100%10000m999hPa87%
25-Jun-2024 21:00Moderate Rain18°C18 mph, S100%10000m998hPa87%
26-Jun-2024 00:00Overcast Clouds18°C20 mph, SW100%10000m999hPa88%
26-Jun-2024 03:00Overcast Clouds16°C16 mph, SW100%10000m998hPa96%
26-Jun-2024 06:00Light Rain16°C18 mph, W85%10000m999hPa96%
26-Jun-2024 09:00Scattered Clouds15°C11 mph, NW40%10000m1002hPa90%